createdAt,value
2018-12-14T00:00:24.779Z,57.70
2018-12-14T00:02:52.900Z,57.60
2018-12-14T00:05:21.006Z,57.90
2018-12-14T00:07:49.116Z,57.80
2018-12-14T00:10:17.243Z,57.80
2018-12-14T00:12:45.361Z,57.90
2018-12-14T00:15:13.495Z,57.80
2018-12-14T00:17:41.614Z,57.90
2018-12-14T00:20:09.722Z,57.90
2018-12-14T00:22:37.833Z,58.00
2018-12-14T00:25:05.955Z,58.60
2018-12-14T00:27:34.080Z,58.20
2018-12-14T00:30:02.390Z,58.10
2018-12-14T00:32:30.587Z,57.90
2018-12-14T00:34:58.704Z,57.60
2018-12-14T00:37:26.828Z,57.50
2018-12-14T00:39:54.963Z,57.60
2018-12-14T00:42:23.070Z,57.70
2018-12-14T00:44:51.207Z,58.00
2018-12-14T00:47:19.325Z,58.00
2018-12-14T00:49:47.456Z,57.70
2018-12-14T00:52:15.566Z,57.60
2018-12-14T00:54:43.685Z,57.70
2018-12-14T00:57:11.795Z,57.50
2018-12-14T00:59:40.195Z,57.90
2018-12-14T01:02:10.298Z,57.30
2018-12-14T01:04:38.440Z,57.60
2018-12-14T01:07:06.579Z,57.60
2018-12-14T01:09:34.711Z,57.70
2018-12-14T01:12:02.813Z,57.70
2018-12-14T01:14:30.938Z,57.70
2018-12-14T01:16:59.052Z,57.60
2018-12-14T01:19:27.185Z,57.50
2018-12-14T01:21:55.325Z,57.80
2018-12-14T01:24:23.483Z,57.80
2018-12-14T01:26:51.588Z,57.70
2018-12-14T01:29:19.707Z,57.60
2018-12-14T01:31:47.819Z,57.80
2018-12-14T01:34:16.050Z,58.30
2018-12-14T01:36:44.166Z,57.70
2018-12-14T01:39:12.287Z,58.20
2018-12-14T01:41:40.395Z,57.90
2018-12-14T01:44:08.550Z,58.00
2018-12-14T01:46:36.661Z,57.70
2018-12-14T01:49:04.791Z,57.90
2018-12-14T01:51:32.904Z,57.80
2018-12-14T01:54:01.031Z,57.80
2018-12-14T01:56:29.139Z,57.70
2018-12-14T01:58:57.265Z,57.40
2018-12-14T02:01:25.386Z,57.70
2018-12-14T02:03:53.521Z,58.40
2018-12-14T02:06:21.637Z,57.70
2018-12-14T02:08:49.765Z,57.80
2018-12-14T02:11:17.870Z,57.70
2018-12-14T02:13:46.073Z,57.70
2018-12-14T02:16:14.188Z,57.50
2018-12-14T02:18:42.305Z,57.60
2018-12-14T02:21:10.449Z,57.60
2018-12-14T02:23:38.576Z,57.70
2018-12-14T02:26:06.722Z,57.50
2018-12-14T02:28:34.955Z,57.60
2018-12-14T02:31:03.095Z,57.80
2018-12-14T02:33:31.212Z,57.70
2018-12-14T02:35:59.337Z,57.50
2018-12-14T02:38:27.445Z,57.50
2018-12-14T02:40:55.578Z,57.40
2018-12-14T02:43:24.064Z,58.10
2018-12-14T02:45:52.186Z,57.40
2018-12-14T02:48:20.296Z,57.50
2018-12-14T02:50:48.420Z,57.30
2018-12-14T02:53:16.540Z,57.50
2018-12-14T02:55:44.660Z,57.60
2018-12-14T02:58:12.796Z,57.50
2018-12-14T03:00:40.927Z,57.70
2018-12-14T03:03:09.053Z,57.50
2018-12-14T03:05:37.185Z,57.40
2018-12-14T03:08:05.301Z,57.30
2018-12-14T03:10:33.450Z,57.40
2018-12-14T03:13:01.556Z,57.50
2018-12-14T03:15:29.685Z,57.50
2018-12-14T03:17:57.842Z,57.70
2018-12-14T03:20:25.972Z,57.60
2018-12-14T03:22:54.087Z,57.50
2018-12-14T03:25:25.537Z,57.50
2018-12-14T03:27:53.647Z,57.70
2018-12-14T03:30:21.788Z,57.50
2018-12-14T03:32:49.917Z,57.50
2018-12-14T03:35:18.070Z,57.50
2018-12-14T03:37:46.188Z,57.50
2018-12-14T03:40:14.297Z,57.50
2018-12-14T03:42:42.401Z,57.60
2018-12-14T03:45:10.991Z,57.60
2018-12-14T03:47:39.107Z,57.50
2018-12-14T03:50:07.239Z,57.50
2018-12-14T03:52:35.358Z,57.40
2018-12-14T03:55:03.741Z,57.40
2018-12-14T03:57:31.852Z,57.40
2018-12-14T03:59:59.978Z,57.30
2018-12-14T04:02:28.156Z,57.40
2018-12-14T04:04:56.357Z,57.30
2018-12-14T04:07:24.491Z,57.50
2018-12-14T04:09:52.606Z,57.50
2018-12-14T04:12:20.763Z,57.50
2018-12-14T04:14:48.903Z,57.40
2018-12-14T04:17:17.011Z,57.40
2018-12-14T04:19:45.135Z,57.30
2018-12-14T04:22:13.256Z,57.30
2018-12-14T04:24:41.392Z,57.40
2018-12-14T04:27:09.504Z,57.40
2018-12-14T04:29:37.630Z,57.40
2018-12-14T04:32:05.778Z,57.50
2018-12-14T04:34:34.027Z,57.80
2018-12-14T04:37:02.257Z,57.60
2018-12-14T04:39:31.255Z,58.10
2018-12-14T04:41:59.629Z,57.50
2018-12-14T04:44:27.744Z,57.30
2018-12-14T04:46:56.452Z,57.00
2018-12-14T04:49:24.873Z,57.50
2018-12-14T04:51:53.004Z,57.50
2018-12-14T04:54:21.113Z,57.20
2018-12-14T04:56:49.234Z,57.00
2018-12-14T04:59:17.347Z,57.40
2018-12-14T05:01:45.476Z,57.30
2018-12-14T05:04:13.583Z,57.10
2018-12-14T05:06:41.729Z,57.40
2018-12-14T05:09:09.859Z,57.50
2018-12-14T05:11:39.281Z,57.40
2018-12-14T05:14:07.631Z,56.90
2018-12-14T05:16:35.774Z,57.00
2018-12-14T05:19:03.873Z,57.60
2018-12-14T05:21:31.994Z,57.00
2018-12-14T05:24:00.103Z,57.20
2018-12-14T05:26:29.001Z,57.30
2018-12-14T05:28:57.266Z,57.30
2018-12-14T05:31:25.383Z,57.30
2018-12-14T05:33:53.490Z,57.30
2018-12-14T05:36:21.615Z,57.20
2018-12-14T05:38:49.720Z,57.00
2018-12-14T05:41:17.834Z,57.20
2018-12-14T05:43:45.963Z,57.30
2018-12-14T05:46:14.095Z,57.20
2018-12-14T05:48:42.211Z,57.20
2018-12-14T05:51:10.339Z,57.20
2018-12-14T05:53:38.450Z,57.10
2018-12-14T05:56:06.559Z,57.00
2018-12-14T05:58:34.664Z,57.00
2018-12-14T06:01:02.798Z,57.30
2018-12-14T06:03:30.915Z,57.20
2018-12-14T06:05:59.034Z,57.20
2018-12-14T06:08:27.151Z,57.20
2018-12-14T06:10:55.281Z,57.10
2018-12-14T06:13:23.398Z,57.20
2018-12-14T06:15:51.516Z,57.30
2018-12-14T06:18:19.620Z,57.20
2018-12-14T06:20:47.730Z,57.40
2018-12-14T06:23:15.873Z,57.30
2018-12-14T06:25:44.006Z,57.20
2018-12-14T06:28:12.117Z,57.20
2018-12-14T06:30:40.337Z,57.10
2018-12-14T06:33:08.445Z,57.00
2018-12-14T06:35:36.572Z,57.00
2018-12-14T06:38:04.686Z,56.90
2018-12-14T06:40:32.831Z,57.10
2018-12-14T06:43:00.926Z,57.50
2018-12-14T06:45:29.045Z,57.10
2018-12-14T06:47:57.147Z,57.30
2018-12-14T06:50:27.125Z,57.10
2018-12-14T06:52:55.523Z,57.10
2018-12-14T06:55:23.639Z,57.10
2018-12-14T06:57:51.764Z,57.00
2018-12-14T07:00:19.863Z,57.00
2018-12-14T07:02:47.984Z,57.00
2018-12-14T07:05:16.158Z,57.00
2018-12-14T07:07:44.281Z,56.80
2018-12-14T07:10:12.385Z,57.20
2018-12-14T07:12:40.833Z,57.10
2018-12-14T07:15:09.140Z,56.90
2018-12-14T07:17:37.266Z,56.90
2018-12-14T07:20:06.436Z,57.80
2018-12-14T07:22:34.557Z,57.20
2018-12-14T07:25:02.674Z,57.20
2018-12-14T07:27:30.788Z,57.30
2018-12-14T07:29:58.885Z,57.10
2018-12-14T07:32:26.992Z,57.70
2018-12-14T07:34:55.096Z,57.00
2018-12-14T07:37:23.232Z,57.00
2018-12-14T07:39:51.335Z,57.30
2018-12-14T07:42:19.452Z,57.20
2018-12-14T07:44:47.595Z,57.20
2018-12-14T07:47:15.908Z,57.00
2018-12-14T07:49:44.042Z,56.90
2018-12-14T07:52:12.152Z,56.70
2018-12-14T07:54:40.249Z,56.50
2018-12-14T07:57:08.359Z,56.60
2018-12-14T07:59:36.472Z,56.90
2018-12-14T08:02:04.590Z,56.70
2018-12-14T08:04:33.159Z,56.40
2018-12-14T08:07:01.365Z,57.00
2018-12-14T08:09:29.467Z,56.90
2018-12-14T08:11:57.581Z,56.80
2018-12-14T08:14:25.756Z,56.90
2018-12-14T08:16:53.863Z,56.90
2018-12-14T08:19:21.966Z,56.80
2018-12-14T08:21:50.090Z,56.90
2018-12-14T08:24:18.192Z,56.20
2018-12-14T08:26:46.310Z,56.50
2018-12-14T08:29:14.431Z,56.70
2018-12-14T08:31:42.556Z,56.70
2018-12-14T08:34:10.651Z,56.70
2018-12-14T08:36:39.044Z,56.70
2018-12-14T08:39:07.159Z,56.60
2018-12-14T08:41:35.281Z,56.70
2018-12-14T08:44:03.405Z,56.90
2018-12-14T08:46:31.530Z,56.80
2018-12-14T08:48:59.651Z,56.80
2018-12-14T08:51:27.788Z,56.70
2018-12-14T08:53:55.917Z,57.50
2018-12-14T08:56:24.024Z,56.50
2018-12-14T08:58:52.141Z,56.60
2018-12-14T09:01:20.244Z,56.90
2018-12-14T09:03:48.369Z,57.10
2018-12-14T09:06:16.491Z,56.80
2018-12-14T09:08:44.600Z,56.90
2018-12-14T09:11:12.710Z,56.80
2018-12-14T09:13:40.845Z,56.80
2018-12-14T09:16:08.965Z,56.90
2018-12-14T09:18:37.156Z,57.00
2018-12-14T09:21:05.257Z,56.80
2018-12-14T09:23:33.389Z,56.90
2018-12-14T09:26:01.651Z,56.70
2018-12-14T09:28:29.766Z,56.80
2018-12-14T09:30:57.874Z,56.80
2018-12-14T09:33:25.993Z,57.40
2018-12-14T09:35:54.089Z,56.70
2018-12-14T09:38:22.203Z,56.60
2018-12-14T09:40:50.313Z,56.60
2018-12-14T09:43:18.430Z,56.60
2018-12-14T09:45:46.550Z,56.60
2018-12-14T09:48:14.677Z,56.40
2018-12-14T09:50:42.783Z,56.40
2018-12-14T09:53:12.912Z,56.20
2018-12-14T09:55:41.233Z,56.50
2018-12-14T09:58:09.355Z,56.60
2018-12-14T10:00:37.462Z,56.50
2018-12-14T10:03:05.591Z,56.40
2018-12-14T10:05:33.716Z,56.50
2018-12-14T10:08:01.853Z,56.50
2018-12-14T10:10:29.950Z,56.70
2018-12-14T10:12:58.072Z,56.70
2018-12-14T10:15:26.207Z,56.60
2018-12-14T10:17:54.352Z,56.50
2018-12-14T10:20:22.456Z,56.40
2018-12-14T10:22:50.571Z,56.40
2018-12-14T10:25:18.670Z,56.70
2018-12-14T10:27:46.794Z,57.50
2018-12-14T10:30:14.896Z,56.70
2018-12-14T10:32:43.025Z,56.80
2018-12-14T10:35:11.123Z,56.70
2018-12-14T10:37:39.240Z,56.70
2018-12-14T10:40:11.200Z,56.50
2018-12-14T10:42:39.307Z,56.60
2018-12-14T10:45:07.767Z,56.60
2018-12-14T10:47:35.907Z,56.70
2018-12-14T10:50:04.003Z,56.80
2018-12-14T10:52:32.120Z,56.70
2018-12-14T10:55:00.317Z,56.80
2018-12-14T10:57:28.448Z,56.80
2018-12-14T10:59:56.550Z,56.80
2018-12-14T11:02:24.695Z,56.60
2018-12-14T11:04:52.814Z,56.20
2018-12-14T11:07:20.941Z,56.60
2018-12-14T11:09:49.060Z,56.40
2018-12-14T11:12:17.161Z,56.40
2018-12-14T11:14:45.287Z,56.30
2018-12-14T11:17:13.380Z,56.40
2018-12-14T11:19:41.522Z,56.30
2018-12-14T11:22:09.760Z,56.50
2018-12-14T11:24:37.874Z,56.30
2018-12-14T11:27:05.974Z,56.20
2018-12-14T11:29:34.124Z,56.20
2018-12-14T11:32:03.076Z,56.30
2018-12-14T11:34:31.185Z,56.40
2018-12-14T11:36:59.295Z,56.10
2018-12-14T11:39:27.419Z,56.20
2018-12-14T11:41:55.616Z,56.40
2018-12-14T11:44:23.741Z,56.40
2018-12-14T11:46:51.832Z,56.30
2018-12-14T11:49:19.941Z,56.20
2018-12-14T11:51:48.067Z,56.30
2018-12-14T11:54:17.497Z,56.40
2018-12-14T11:56:45.722Z,56.30
2018-12-14T11:59:13.826Z,56.30
2018-12-14T12:01:41.928Z,56.10
2018-12-14T12:04:10.054Z,56.10
2018-12-14T12:06:38.154Z,56.10
2018-12-14T12:09:08.601Z,56.20
2018-12-14T12:11:36.727Z,55.80
2018-12-14T12:14:04.853Z,56.00
2018-12-14T12:16:32.953Z,56.00
2018-12-14T12:19:01.076Z,56.30
2018-12-14T12:21:29.251Z,55.90
2018-12-14T12:23:57.358Z,56.20
2018-12-14T12:26:25.468Z,56.30
2018-12-14T12:28:53.591Z,56.20
2018-12-14T12:31:21.742Z,56.30
2018-12-14T12:33:49.849Z,56.00
2018-12-14T12:36:17.962Z,55.80
2018-12-14T12:38:46.087Z,55.80
2018-12-14T12:41:14.200Z,55.70
2018-12-14T12:43:42.318Z,55.90
2018-12-14T12:46:10.424Z,55.80
2018-12-14T12:48:39.046Z,56.00
2018-12-14T12:51:07.140Z,55.90
2018-12-14T12:53:35.293Z,55.80
2018-12-14T12:56:03.395Z,55.80
2018-12-14T12:58:31.504Z,56.50
2018-12-14T13:00:59.614Z,56.50
2018-12-14T13:03:27.727Z,56.00
2018-12-14T13:05:55.840Z,55.90
2018-12-14T13:08:23.961Z,56.20
2018-12-14T13:10:52.068Z,56.10
2018-12-14T13:13:20.177Z,56.10
2018-12-14T13:15:48.290Z,56.00
2018-12-14T13:18:16.409Z,56.20
2018-12-14T13:20:44.540Z,56.20
2018-12-14T13:23:12.639Z,56.00
2018-12-14T13:25:40.759Z,55.90
2018-12-14T13:28:09.139Z,55.90
2018-12-14T13:30:37.529Z,56.70
2018-12-14T13:33:06.021Z,56.40
2018-12-14T13:35:34.195Z,56.40
2018-12-14T13:38:02.297Z,56.30
2018-12-14T13:40:30.415Z,56.50
2018-12-14T13:42:58.511Z,56.00
2018-12-14T13:45:26.632Z,55.80
2018-12-14T13:47:54.734Z,55.80
2018-12-14T13:50:22.854Z,55.70
2018-12-14T13:52:50.961Z,55.90
2018-12-14T13:55:19.076Z,56.00
2018-12-14T13:57:47.194Z,56.10
2018-12-14T14:00:15.310Z,55.90
2018-12-14T14:02:43.415Z,55.70
2018-12-14T14:05:11.529Z,55.60
2018-12-14T14:07:39.637Z,55.80
2018-12-14T14:10:07.759Z,55.80
2018-12-14T14:12:35.863Z,56.00
2018-12-14T14:15:06.328Z,56.00
2018-12-14T14:17:34.433Z,56.10
2018-12-14T14:20:02.992Z,56.20
2018-12-14T14:22:31.173Z,56.20
2018-12-14T14:24:59.301Z,56.10
2018-12-14T14:27:27.404Z,55.90
2018-12-14T14:29:55.525Z,56.10
2018-12-14T14:32:23.634Z,55.90
2018-12-14T14:34:51.757Z,56.10
2018-12-14T14:37:19.862Z,55.90
2018-12-14T14:39:47.972Z,56.00
2018-12-14T14:42:16.081Z,56.10
2018-12-14T14:44:44.212Z,56.20
2018-12-14T14:47:12.328Z,56.00
2018-12-14T14:49:40.441Z,55.80
2018-12-14T14:52:08.532Z,55.90
2018-12-14T14:54:39.891Z,55.80
2018-12-14T14:57:06.803Z,55.80
2018-12-14T14:59:34.924Z,55.70
2018-12-14T15:02:03.037Z,55.60
2018-12-14T15:04:31.144Z,55.70
2018-12-14T15:06:59.253Z,55.80
2018-12-14T15:09:27.375Z,55.70
2018-12-14T15:11:56.111Z,55.70
2018-12-14T15:14:24.230Z,55.60
2018-12-14T15:16:52.322Z,55.40
2018-12-14T15:19:20.500Z,55.60
2018-12-14T15:21:48.622Z,55.40
2018-12-14T15:24:16.750Z,55.40
2018-12-14T15:26:44.850Z,55.30
2018-12-14T15:29:12.958Z,55.40
2018-12-14T15:31:42.944Z,55.40
2018-12-14T15:34:14.350Z,55.40
2018-12-14T15:36:41.189Z,55.50
2018-12-14T15:39:09.301Z,55.80
2018-12-14T15:41:37.423Z,55.80
2018-12-14T15:44:05.523Z,55.70
2018-12-14T15:46:33.734Z,55.60
2018-12-14T15:49:01.953Z,55.60
2018-12-14T15:51:30.089Z,55.70
2018-12-14T15:53:58.206Z,55.50
2018-12-14T15:56:26.321Z,55.20
2018-12-14T15:58:54.444Z,55.50
2018-12-14T16:01:22.571Z,55.40
2018-12-14T16:03:50.665Z,55.40
2018-12-14T16:06:18.784Z,55.40
2018-12-14T16:08:46.888Z,55.40
2018-12-14T16:11:15.009Z,55.40
2018-12-14T16:13:43.112Z,55.30
2018-12-14T16:16:11.952Z,55.30
2018-12-14T16:18:40.098Z,55.30
2018-12-14T16:21:08.304Z,55.20
2018-12-14T16:23:36.439Z,55.20
2018-12-14T16:26:04.669Z,55.20
2018-12-14T16:28:32.780Z,55.40
2018-12-14T16:31:00.906Z,55.40
2018-12-14T16:33:29.031Z,55.60
2018-12-14T16:35:57.146Z,55.70
2018-12-14T16:38:25.258Z,55.70
2018-12-14T16:40:53.379Z,55.40
2018-12-14T16:43:21.485Z,55.40
2018-12-14T16:45:49.613Z,55.60
2018-12-14T16:48:17.713Z,55.30
2018-12-14T16:50:45.828Z,55.30
2018-12-14T16:53:13.933Z,55.30
2018-12-14T16:55:42.049Z,55.40
2018-12-14T16:58:10.165Z,55.30
2018-12-14T17:00:38.282Z,55.40
2018-12-14T17:03:06.386Z,55.60
2018-12-14T17:05:34.500Z,55.70
2018-12-14T17:08:02.601Z,55.70
2018-12-14T17:10:30.736Z,55.80
2018-12-14T17:12:58.842Z,55.80
2018-12-14T17:15:33.021Z,55.60
2018-12-14T17:17:57.089Z,55.40
2018-12-14T17:20:25.206Z,55.40
2018-12-14T17:22:53.313Z,55.30
2018-12-14T17:25:21.421Z,55.50
2018-12-14T17:27:49.534Z,55.40
2018-12-14T17:30:17.646Z,55.40
2018-12-14T17:32:45.745Z,55.50
2018-12-14T17:35:13.889Z,55.40
2018-12-14T17:37:41.973Z,55.30
2018-12-14T17:40:10.108Z,55.60
2018-12-14T17:42:38.205Z,55.40
2018-12-14T17:45:06.336Z,55.40
2018-12-14T17:47:34.443Z,55.30
2018-12-14T17:50:02.545Z,55.30
2018-12-14T17:52:30.673Z,55.20
2018-12-14T17:54:58.774Z,55.30
2018-12-14T17:57:26.905Z,55.30
2018-12-14T17:59:55.002Z,55.20
2018-12-14T18:02:23.562Z,55.20
2018-12-14T18:04:51.665Z,55.10
2018-12-14T18:07:19.796Z,55.10
2018-12-14T18:09:47.917Z,55.30
2018-12-14T18:12:16.024Z,55.20
2018-12-14T18:14:44.131Z,55.30
2018-12-14T18:17:12.270Z,55.30
2018-12-14T18:19:40.383Z,55.30
2018-12-14T18:22:08.781Z,55.40
2018-12-14T18:24:36.897Z,55.30
2018-12-14T18:27:05.023Z,55.30
2018-12-14T18:29:33.141Z,55.20
2018-12-14T18:32:01.259Z,55.20
2018-12-14T18:34:29.352Z,55.20
2018-12-14T18:36:57.482Z,55.20
2018-12-14T18:39:25.597Z,55.20
2018-12-14T18:41:53.709Z,55.20
2018-12-14T18:44:21.814Z,55.20
2018-12-14T18:46:49.959Z,55.10
2018-12-14T18:49:18.129Z,55.20
2018-12-14T18:51:46.249Z,55.20
2018-12-14T18:54:14.363Z,55.20
2018-12-14T18:56:42.480Z,55.20
2018-12-14T18:59:10.669Z,55.70
2018-12-14T19:01:38.784Z,55.20
2018-12-14T19:04:06.875Z,55.10
2018-12-14T19:06:35.000Z,55.20
2018-12-14T19:09:04.399Z,55.30
2018-12-14T19:11:32.519Z,55.50
2018-12-14T19:14:00.641Z,55.30
2018-12-14T19:16:28.747Z,55.30
2018-12-14T19:18:56.850Z,55.30
2018-12-14T19:21:24.975Z,55.30
2018-12-14T19:23:53.088Z,55.30
2018-12-14T19:26:21.217Z,55.10
2018-12-14T19:28:49.343Z,55.10
2018-12-14T19:31:17.464Z,55.10
2018-12-14T19:33:45.577Z,54.90
2018-12-14T19:36:13.697Z,55.00
2018-12-14T19:38:41.800Z,55.10
2018-12-14T19:41:09.906Z,55.40
2018-12-14T19:43:38.016Z,55.40
2018-12-14T19:46:06.598Z,55.20
2018-12-14T19:48:34.875Z,55.20
2018-12-14T19:51:02.995Z,55.10
2018-12-14T19:53:31.109Z,55.10
2018-12-14T19:55:59.220Z,55.10
2018-12-14T19:58:27.326Z,55.00
2018-12-14T20:00:55.447Z,55.10
2018-12-14T20:03:23.550Z,55.10
2018-12-14T20:05:51.669Z,55.20
2018-12-14T20:08:19.788Z,55.20
2018-12-14T20:10:48.592Z,55.20
2018-12-14T20:13:16.958Z,55.40
2018-12-14T20:15:45.073Z,55.30
2018-12-14T20:18:13.205Z,55.20
2018-12-14T20:20:41.315Z,55.30
2018-12-14T20:23:09.430Z,55.20
2018-12-14T20:25:37.522Z,55.10
2018-12-14T20:28:05.625Z,55.00
2018-12-14T20:30:33.737Z,55.00
2018-12-14T20:33:01.851Z,55.00
2018-12-14T20:35:29.964Z,55.10
2018-12-14T20:37:58.357Z,55.10
2018-12-14T20:40:26.477Z,55.20
2018-12-14T20:42:54.597Z,55.10
2018-12-14T20:45:22.707Z,55.20
2018-12-14T20:47:50.832Z,55.20
2018-12-14T20:50:18.962Z,55.10
2018-12-14T20:52:47.174Z,55.20
2018-12-14T20:55:15.280Z,55.20
2018-12-14T20:57:43.406Z,55.20
2018-12-14T21:00:11.581Z,55.20
2018-12-14T21:02:39.706Z,55.10
2018-12-14T21:05:07.815Z,55.20
2018-12-14T21:07:35.936Z,55.00
2018-12-14T21:10:04.186Z,55.20
2018-12-14T21:12:32.297Z,55.20
2018-12-14T21:15:00.413Z,55.00
2018-12-14T21:17:28.769Z,54.90
2018-12-14T21:19:56.873Z,55.10
2018-12-14T21:22:25.023Z,55.30
2018-12-14T21:24:53.151Z,55.20
2018-12-14T21:27:21.258Z,55.50
2018-12-14T21:29:49.362Z,55.20
2018-12-14T21:32:17.488Z,55.80
2018-12-14T21:34:45.603Z,55.10
2018-12-14T21:37:13.715Z,55.00
2018-12-14T21:39:41.825Z,54.90
2018-12-14T21:42:09.939Z,54.90
2018-12-14T21:44:38.050Z,55.10
2018-12-14T21:47:06.336Z,55.00
2018-12-14T21:49:34.454Z,54.90
2018-12-14T21:52:02.557Z,55.60
2018-12-14T21:54:30.673Z,55.00
2018-12-14T21:56:58.795Z,55.00
2018-12-14T21:59:26.914Z,55.00
2018-12-14T22:01:55.018Z,54.90
2018-12-14T22:04:23.144Z,55.20
2018-12-14T22:06:51.257Z,55.10
2018-12-14T22:09:19.359Z,55.00
2018-12-14T22:11:47.469Z,55.00
2018-12-14T22:14:15.719Z,55.00
2018-12-14T22:16:43.831Z,55.00
2018-12-14T22:19:11.948Z,55.20
2018-12-14T22:21:40.055Z,55.00
2018-12-14T22:24:08.169Z,54.90
2018-12-14T22:26:36.282Z,55.00
2018-12-14T22:29:04.396Z,54.90
2018-12-14T22:31:32.504Z,55.10
2018-12-14T22:34:00.615Z,55.10
2018-12-14T22:36:28.721Z,54.90
2018-12-14T22:38:56.839Z,55.70
2018-12-14T22:41:24.943Z,54.80
2018-12-14T22:43:53.068Z,54.70
2018-12-14T22:46:21.182Z,54.90
2018-12-14T22:48:49.304Z,54.90
2018-12-14T22:51:17.408Z,55.10
2018-12-14T22:53:45.523Z,54.80
2018-12-14T22:56:13.624Z,54.80
2018-12-14T22:58:41.730Z,54.70
2018-12-14T23:01:09.843Z,54.60
2018-12-14T23:03:37.983Z,54.50
2018-12-14T23:06:06.091Z,54.60
2018-12-14T23:08:34.213Z,54.50
2018-12-14T23:11:02.320Z,54.70
2018-12-14T23:13:30.436Z,54.90
2018-12-14T23:15:58.541Z,54.90
2018-12-14T23:18:26.666Z,55.10
2018-12-14T23:20:54.769Z,55.30
2018-12-14T23:23:22.877Z,54.80
2018-12-14T23:25:50.975Z,54.80
2018-12-14T23:28:19.090Z,54.90
2018-12-14T23:30:47.191Z,54.80
2018-12-14T23:33:15.320Z,54.90
2018-12-14T23:35:43.429Z,55.00
2018-12-14T23:38:11.551Z,55.00
2018-12-14T23:40:39.653Z,55.10
2018-12-14T23:43:07.757Z,55.10
2018-12-14T23:45:35.871Z,54.90
2018-12-14T23:48:03.973Z,55.20
2018-12-14T23:50:32.479Z,55.10
2018-12-14T23:53:00.581Z,54.90
2018-12-14T23:55:28.689Z,54.90
2018-12-14T23:57:56.786Z,54.80
